sensor_id;sensor_type;location;lat;lon;timestamp;P1;durP1;ratioP1;P2;durP2;ratioP2
49900;SDS011;35789;48.414;12.768;2022-09-02T00:00:00;4.1;;;2.1;;
49900;SDS011;35789;48.414;12.768;2022-09-02T00:05:00;4.7;;;2.0;;
49900;SDS011;35789;48.414;12.768;2022-09-02T00:10:00;4.7;;;2.0;;
49900;SDS011;35789;48.414;12.768;2022-09-02T00:15:00;4.7;;;2.0;;
49900;SDS011;35789;48.414;12.768;2022-09-02T00:20:00;4.7;;;2.0;;
49900;SDS011;35789;48.414;12.768;2022-09-02T00:25:00;4.7;;;2.0;;
49900;SDS011;35789;48.414;12.768;2022-09-02T00:30:00;4.7;;;2.0;;
49900;SDS011;35789;48.414;12.768;2022-09-02T00:35:00;4.2;;;2.1;;
49900;SDS011;35789;48.414;12.768;2022-09-02T00:40:00;4.2;;;2.1;;
49900;SDS011;35789;48.414;12.768;2022-09-02T00:45:00;4.2;;;2.1;;
49900;SDS011;35789;48.414;12.768;2022-09-02T00:50:03;4.2;;;2.1;;
49900;SDS011;35789;48.414;12.768;2022-09-02T00:55:05;4.2;;;2.1;;
49900;SDS011;35789;48.414;12.768;2022-09-02T01:00:06;4.2;;;2.1;;
49900;SDS011;35789;48.414;12.768;2022-09-02T01:05:00;5.3;;;2.5;;
49900;SDS011;35789;48.414;12.768;2022-09-02T01:10:01;5.3;;;2.5;;
49900;SDS011;35789;48.414;12.768;2022-09-02T01:15:00;5.3;;;2.5;;
49900;SDS011;35789;48.414;12.768;2022-09-02T01:20:05;5.3;;;2.5;;
49900;SDS011;35789;48.414;12.768;2022-09-02T01:25:04;5.3;;;2.5;;
49900;SDS011;35789;48.414;12.768;2022-09-02T01:30:00;5.3;;;2.5;;
49900;SDS011;35789;48.414;12.768;2022-09-02T01:35:00;8.2;;;2.2;;
49900;SDS011;35789;48.414;12.768;2022-09-02T01:40:00;8.2;;;2.2;;
49900;SDS011;35789;48.414;12.768;2022-09-02T01:45:00;8.2;;;2.2;;
49900;SDS011;35789;48.414;12.768;2022-09-02T01:50:00;8.2;;;2.2;;
49900;SDS011;35789;48.414;12.768;2022-09-02T01:55:00;8.2;;;2.2;;
49900;SDS011;35789;48.414;12.768;2022-09-02T02:00:02;8.2;;;2.2;;
49900;SDS011;35789;48.414;12.768;2022-09-02T02:05:00;3.7;;;1.9;;
49900;SDS011;35789;48.414;12.768;2022-09-02T02:10:00;3.7;;;1.9;;
49900;SDS011;35789;48.414;12.768;2022-09-02T02:15:00;3.7;;;1.9;;
49900;SDS011;35789;48.414;12.768;2022-09-02T02:20:00;3.7;;;1.9;;
49900;SDS011;35789;48.414;12.768;2022-09-02T02:25:00;3.7;;;1.9;;
49900;SDS011;35789;48.414;12.768;2022-09-02T02:30:00;3.7;;;1.9;;
49900;SDS011;35789;48.414;12.768;2022-09-02T02:35:00;4.4;;;1.6;;
49900;SDS011;35789;48.414;12.768;2022-09-02T02:40:00;4.4;;;1.6;;
49900;SDS011;35789;48.414;12.768;2022-09-02T02:45:00;4.4;;;1.6;;
49900;SDS011;35789;48.414;12.768;2022-09-02T02:50:00;4.4;;;1.6;;
49900;SDS011;35789;48.414;12.768;2022-09-02T02:55:00;4.4;;;1.6;;
49900;SDS011;35789;48.414;12.768;2022-09-02T03:00:04;4.4;;;1.6;;
49900;SDS011;35789;48.414;12.768;2022-09-02T03:05:01;5.2;;;2.2;;
49900;SDS011;35789;48.414;12.768;2022-09-02T03:10:00;5.2;;;2.2;;
49900;SDS011;35789;48.414;12.768;2022-09-02T03:15:00;5.2;;;2.2;;
49900;SDS011;35789;48.414;12.768;2022-09-02T03:20:00;5.2;;;2.2;;
49900;SDS011;35789;48.414;12.768;2022-09-02T03:25:00;5.2;;;2.2;;
49900;SDS011;35789;48.414;12.768;2022-09-02T03:30:00;5.2;;;2.2;;
49900;SDS011;35789;48.414;12.768;2022-09-02T03:35:00;5.4;;;2.6;;
49900;SDS011;35789;48.414;12.768;2022-09-02T03:40:00;5.4;;;2.6;;
49900;SDS011;35789;48.414;12.768;2022-09-02T03:45:00;5.4;;;2.6;;
49900;SDS011;35789;48.414;12.768;2022-09-02T03:50:00;5.4;;;2.6;;
49900;SDS011;35789;48.414;12.768;2022-09-02T03:55:00;5.4;;;2.6;;
49900;SDS011;35789;48.414;12.768;2022-09-02T04:00:01;5.4;;;2.6;;
49900;SDS011;35789;48.414;12.768;2022-09-02T04:05:00;3.6;;;1.5;;
49900;SDS011;35789;48.414;12.768;2022-09-02T04:10:00;3.6;;;1.5;;
49900;SDS011;35789;48.414;12.768;2022-09-02T04:15:00;3.6;;;1.5;;
49900;SDS011;35789;48.414;12.768;2022-09-02T04:25:00;3.6;;;1.5;;
49900;SDS011;35789;48.414;12.768;2022-09-02T04:30:00;3.6;;;1.5;;
49900;SDS011;35789;48.414;12.768;2022-09-02T04:35:00;5.3;;;2.1;;
49900;SDS011;35789;48.414;12.768;2022-09-02T04:40:00;5.3;;;2.1;;
49900;SDS011;35789;48.414;12.768;2022-09-02T04:45:00;5.3;;;2.1;;
49900;SDS011;35789;48.414;12.768;2022-09-02T04:50:00;5.3;;;2.1;;
49900;SDS011;35789;48.414;12.768;2022-09-02T04:55:00;5.3;;;2.1;;
49900;SDS011;35789;48.414;12.768;2022-09-02T05:00:00;5.3;;;2.1;;
49900;SDS011;35789;48.414;12.768;2022-09-02T05:05:00;4.6;;;1.9;;
49900;SDS011;35789;48.414;12.768;2022-09-02T05:10:00;4.6;;;1.9;;
49900;SDS011;35789;48.414;12.768;2022-09-02T05:15:00;4.6;;;1.9;;
49900;SDS011;35789;48.414;12.768;2022-09-02T05:20:00;4.6;;;1.9;;
49900;SDS011;35789;48.414;12.768;2022-09-02T05:25:00;4.6;;;1.9;;
49900;SDS011;35789;48.414;12.768;2022-09-02T05:30:00;4.6;;;1.9;;
49900;SDS011;35789;48.414;12.768;2022-09-02T05:35:00;5.2;;;2.1;;
49900;SDS011;35789;48.414;12.768;2022-09-02T05:40:00;5.2;;;2.1;;
49900;SDS011;35789;48.414;12.768;2022-09-02T05:45:00;5.2;;;2.1;;
49900;SDS011;35789;48.414;12.768;2022-09-02T05:50:00;5.2;;;2.1;;
49900;SDS011;35789;48.414;12.768;2022-09-02T05:55:00;5.2;;;2.1;;
49900;SDS011;35789;48.414;12.768;2022-09-02T06:00:00;5.2;;;2.1;;
49900;SDS011;35789;48.414;12.768;2022-09-02T06:05:00;5.5;;;2.0;;
49900;SDS011;35789;48.414;12.768;2022-09-02T06:10:00;5.5;;;2.0;;
49900;SDS011;35789;48.414;12.768;2022-09-02T06:15:00;5.5;;;2.0;;
49900;SDS011;35789;48.414;12.768;2022-09-02T06:20:00;5.5;;;2.0;;
49900;SDS011;35789;48.414;12.768;2022-09-02T06:25:00;5.5;;;2.0;;
49900;SDS011;35789;48.414;12.768;2022-09-02T06:30:00;5.5;;;2.0;;
49900;SDS011;35789;48.414;12.768;2022-09-02T06:35:00;4.5;;;1.6;;
49900;SDS011;35789;48.414;12.768;2022-09-02T06:40:00;4.5;;;1.6;;
49900;SDS011;35789;48.414;12.768;2022-09-02T06:45:00;4.5;;;1.6;;
49900;SDS011;35789;48.414;12.768;2022-09-02T06:50:00;4.5;;;1.6;;
49900;SDS011;35789;48.414;12.768;2022-09-02T06:55:00;4.5;;;1.6;;
49900;SDS011;35789;48.414;12.768;2022-09-02T07:00:00;4.5;;;1.6;;
49900;SDS011;35789;48.414;12.768;2022-09-02T07:05:00;4.4;;;1.6;;
49900;SDS011;35789;48.414;12.768;2022-09-02T07:10:00;4.4;;;1.6;;
49900;SDS011;35789;48.414;12.768;2022-09-02T07:15:00;4.4;;;1.6;;
49900;SDS011;35789;48.414;12.768;2022-09-02T07:20:00;4.4;;;1.6;;
49900;SDS011;35789;48.414;12.768;2022-09-02T07:25:00;4.4;;;1.6;;
49900;SDS011;35789;48.414;12.768;2022-09-02T07:30:00;4.4;;;1.6;;
49900;SDS011;35789;48.414;12.768;2022-09-02T07:35:00;4.0;;;1.1;;
49900;SDS011;35789;48.414;12.768;2022-09-02T07:40:00;4.0;;;1.1;;
49900;SDS011;35789;48.414;12.768;2022-09-02T07:45:00;4.0;;;1.1;;
49900;SDS011;35789;48.414;12.768;2022-09-02T07:50:00;4.0;;;1.1;;
49900;SDS011;35789;48.414;12.768;2022-09-02T07:55:00;4.0;;;1.1;;
49900;SDS011;35789;48.414;12.768;2022-09-02T08:00:00;4.0;;;1.1;;
49900;SDS011;35789;48.414;12.768;2022-09-02T08:05:00;3.5;;;1.3;;
49900;SDS011;35789;48.414;12.768;2022-09-02T08:10:00;3.5;;;1.3;;
49900;SDS011;35789;48.414;12.768;2022-09-02T08:15:00;3.5;;;1.3;;
49900;SDS011;35789;48.414;12.768;2022-09-02T08:20:00;3.5;;;1.3;;
49900;SDS011;35789;48.414;12.768;2022-09-02T08:25:00;3.5;;;1.3;;
49900;SDS011;35789;48.414;12.768;2022-09-02T08:30:00;3.5;;;1.3;;
49900;SDS011;35789;48.414;12.768;2022-09-02T08:35:00;5.2;;;1.2;;
49900;SDS011;35789;48.414;12.768;2022-09-02T08:40:00;5.2;;;1.2;;
49900;SDS011;35789;48.414;12.768;2022-09-02T08:45:06;5.2;;;1.2;;
49900;SDS011;35789;48.414;12.768;2022-09-02T08:50:03;5.2;;;1.2;;
49900;SDS011;35789;48.414;12.768;2022-09-02T08:55:00;5.2;;;1.2;;
49900;SDS011;35789;48.414;12.768;2022-09-02T09:00:00;5.2;;;1.2;;
49900;SDS011;35789;48.414;12.768;2022-09-02T09:05:09;2.9;;;0.9;;
49900;SDS011;35789;48.414;12.768;2022-09-02T09:10:07;2.9;;;0.9;;
49900;SDS011;35789;48.414;12.768;2022-09-02T09:15:04;2.9;;;0.9;;
49900;SDS011;35789;48.414;12.768;2022-09-02T09:20:05;2.9;;;0.9;;
49900;SDS011;35789;48.414;12.768;2022-09-02T09:25:00;2.9;;;0.9;;
49900;SDS011;35789;48.414;12.768;2022-09-02T09:30:00;2.9;;;0.9;;
49900;SDS011;35789;48.414;12.768;2022-09-02T09:35:03;2.1;;;0.7;;
49900;SDS011;35789;48.414;12.768;2022-09-02T09:40:00;2.1;;;0.7;;
49900;SDS011;35789;48.414;12.768;2022-09-02T09:45:14;2.1;;;0.7;;
49900;SDS011;35789;48.414;12.768;2022-09-02T09:50:09;2.1;;;0.7;;
49900;SDS011;35789;48.414;12.768;2022-09-02T09:55:09;2.1;;;0.7;;
49900;SDS011;35789;48.414;12.768;2022-09-02T10:00:00;2.1;;;0.7;;
49900;SDS011;35789;48.414;12.768;2022-09-02T10:05:10;2.6;;;0.9;;
49900;SDS011;35789;48.414;12.768;2022-09-02T10:10:11;2.6;;;0.9;;
49900;SDS011;35789;48.414;12.768;2022-09-02T10:15:00;2.6;;;0.9;;
49900;SDS011;35789;48.414;12.768;2022-09-02T10:20:04;2.6;;;0.9;;
49900;SDS011;35789;48.414;12.768;2022-09-02T10:25:06;2.6;;;0.9;;
49900;SDS011;35789;48.414;12.768;2022-09-02T10:30:04;2.6;;;0.9;;
49900;SDS011;35789;48.414;12.768;2022-09-02T10:35:08;3.8;;;0.9;;
49900;SDS011;35789;48.414;12.768;2022-09-02T10:40:09;3.8;;;0.9;;
49900;SDS011;35789;48.414;12.768;2022-09-02T10:45:04;3.8;;;0.9;;
49900;SDS011;35789;48.414;12.768;2022-09-02T10:50:08;3.8;;;0.9;;
49900;SDS011;35789;48.414;12.768;2022-09-02T10:55:07;unknown;;;unknown;;
49900;SDS011;35789;48.414;12.768;2022-09-02T11:00:04;unknown;;;unknown;;
49900;SDS011;35789;48.414;12.768;2022-09-02T11:05:04;3.5;;;1.0;;
49900;SDS011;35789;48.414;12.768;2022-09-02T11:10:06;3.5;;;1.0;;
49900;SDS011;35789;48.414;12.768;2022-09-02T11:15:05;3.5;;;1.0;;
49900;SDS011;35789;48.414;12.768;2022-09-02T11:20:04;3.5;;;1.0;;
49900;SDS011;35789;48.414;12.768;2022-09-02T11:25:05;3.5;;;1.0;;
49900;SDS011;35789;48.414;12.768;2022-09-02T11:30:03;3.5;;;1.0;;
49900;SDS011;35789;48.414;12.768;2022-09-02T11:35:03;2.5;;;0.9;;
49900;SDS011;35789;48.414;12.768;2022-09-02T11:40:03;2.5;;;0.9;;
49900;SDS011;35789;48.414;12.768;2022-09-02T11:50:10;2.5;;;0.9;;
49900;SDS011;35789;48.414;12.768;2022-09-02T11:55:05;2.5;;;0.9;;
49900;SDS011;35789;48.414;12.768;2022-09-02T12:00:05;2.5;;;0.9;;
49900;SDS011;35789;48.414;12.768;2022-09-02T12:10:00;4.2;;;0.9;;
49900;SDS011;35789;48.414;12.768;2022-09-02T12:15:01;4.2;;;0.9;;
49900;SDS011;35789;48.414;12.768;2022-09-02T12:20:00;4.2;;;0.9;;
49900;SDS011;35789;48.414;12.768;2022-09-02T12:25:01;4.2;;;0.9;;
49900;SDS011;35789;48.414;12.768;2022-09-02T12:30:00;4.2;;;0.9;;
49900;SDS011;35789;48.414;12.768;2022-09-02T12:35:09;2.7;;;1.0;;
49900;SDS011;35789;48.414;12.768;2022-09-02T12:40:08;2.7;;;1.0;;
49900;SDS011;35789;48.414;12.768;2022-09-02T12:45:05;2.7;;;1.0;;
49900;SDS011;35789;48.414;12.768;2022-09-02T12:50:03;2.7;;;1.0;;
49900;SDS011;35789;48.414;12.768;2022-09-02T12:55:03;2.7;;;1.0;;
49900;SDS011;35789;48.414;12.768;2022-09-02T13:00:00;4.8;;;1.3;;
49900;SDS011;35789;48.414;12.768;2022-09-02T13:05:08;4.8;;;1.3;;
49900;SDS011;35789;48.414;12.768;2022-09-02T13:10:15;4.8;;;1.3;;
49900;SDS011;35789;48.414;12.768;2022-09-02T13:15:11;4.8;;;1.3;;
49900;SDS011;35789;48.414;12.768;2022-09-02T13:20:15;4.8;;;1.3;;
49900;SDS011;35789;48.414;12.768;2022-09-02T13:25:15;4.8;;;1.3;;
49900;SDS011;35789;48.414;12.768;2022-09-02T13:30:13;4.0;;;1.1;;
49900;SDS011;35789;48.414;12.768;2022-09-02T13:35:02;4.0;;;1.1;;
49900;SDS011;35789;48.414;12.768;2022-09-02T13:40:04;4.0;;;1.1;;
49900;SDS011;35789;48.414;12.768;2022-09-02T13:45:10;4.0;;;1.1;;
49900;SDS011;35789;48.414;12.768;2022-09-02T13:50:00;4.0;;;1.1;;
49900;SDS011;35789;48.414;12.768;2022-09-02T13:55:00;4.0;;;1.1;;
49900;SDS011;35789;48.414;12.768;2022-09-02T14:00:00;3.3;;;1.2;;
49900;SDS011;35789;48.414;12.768;2022-09-02T14:05:03;3.3;;;1.2;;
49900;SDS011;35789;48.414;12.768;2022-09-02T14:10:02;3.3;;;1.2;;
49900;SDS011;35789;48.414;12.768;2022-09-02T14:15:01;3.3;;;1.2;;
49900;SDS011;35789;48.414;12.768;2022-09-02T14:20:15;3.3;;;1.2;;
49900;SDS011;35789;48.414;12.768;2022-09-02T14:25:07;3.3;;;1.2;;
49900;SDS011;35789;48.414;12.768;2022-09-02T14:30:00;3.0;;;0.9;;
49900;SDS011;35789;48.414;12.768;2022-09-02T14:35:11;3.0;;;0.9;;
49900;SDS011;35789;48.414;12.768;2022-09-02T14:40:06;3.0;;;0.9;;
49900;SDS011;35789;48.414;12.768;2022-09-02T14:45:00;3.0;;;0.9;;
49900;SDS011;35789;48.414;12.768;2022-09-02T14:50:00;3.0;;;0.9;;
49900;SDS011;35789;48.414;12.768;2022-09-02T14:55:00;3.0;;;0.9;;
49900;SDS011;35789;48.414;12.768;2022-09-02T15:00:04;3.6;;;1.1;;
49900;SDS011;35789;48.414;12.768;2022-09-02T15:05:02;3.6;;;1.1;;
49900;SDS011;35789;48.414;12.768;2022-09-02T15:10:00;3.6;;;1.1;;
49900;SDS011;35789;48.414;12.768;2022-09-02T15:15:00;3.6;;;1.1;;
49900;SDS011;35789;48.414;12.768;2022-09-02T15:20:00;3.6;;;1.1;;
49900;SDS011;35789;48.414;12.768;2022-09-02T15:25:00;3.6;;;1.1;;
49900;SDS011;35789;48.414;12.768;2022-09-02T15:30:00;3.6;;;1.0;;
49900;SDS011;35789;48.414;12.768;2022-09-02T15:35:00;3.6;;;1.0;;
49900;SDS011;35789;48.414;12.768;2022-09-02T15:40:00;3.6;;;1.0;;
49900;SDS011;35789;48.414;12.768;2022-09-02T15:45:00;3.6;;;1.0;;
49900;SDS011;35789;48.414;12.768;2022-09-02T15:50:00;3.6;;;1.0;;
49900;SDS011;35789;48.414;12.768;2022-09-02T15:55:00;3.6;;;1.0;;
49900;SDS011;35789;48.414;12.768;2022-09-02T16:00:00;2.5;;;0.8;;
49900;SDS011;35789;48.414;12.768;2022-09-02T16:05:00;2.5;;;0.8;;
49900;SDS011;35789;48.414;12.768;2022-09-02T16:10:00;2.5;;;0.8;;
49900;SDS011;35789;48.414;12.768;2022-09-02T16:15:00;2.5;;;0.8;;
49900;SDS011;35789;48.414;12.768;2022-09-02T16:20:00;2.5;;;0.8;;
49900;SDS011;35789;48.414;12.768;2022-09-02T16:25:00;2.5;;;0.8;;
49900;SDS011;35789;48.414;12.768;2022-09-02T16:30:00;4.7;;;1.2;;
49900;SDS011;35789;48.414;12.768;2022-09-02T16:35:00;4.7;;;1.2;;
49900;SDS011;35789;48.414;12.768;2022-09-02T16:40:00;4.7;;;1.2;;
49900;SDS011;35789;48.414;12.768;2022-09-02T16:45:00;4.7;;;1.2;;
49900;SDS011;35789;48.414;12.768;2022-09-02T16:50:00;4.7;;;1.2;;
49900;SDS011;35789;48.414;12.768;2022-09-02T16:55:00;4.7;;;1.2;;
49900;SDS011;35789;48.414;12.768;2022-09-02T17:00:00;5.4;;;1.2;;
49900;SDS011;35789;48.414;12.768;2022-09-02T17:05:00;5.4;;;1.2;;
49900;SDS011;35789;48.414;12.768;2022-09-02T17:10:00;5.4;;;1.2;;
49900;SDS011;35789;48.414;12.768;2022-09-02T17:15:00;5.4;;;1.2;;
49900;SDS011;35789;48.414;12.768;2022-09-02T17:20:00;5.4;;;1.2;;
49900;SDS011;35789;48.414;12.768;2022-09-02T17:25:00;5.4;;;1.2;;
49900;SDS011;35789;48.414;12.768;2022-09-02T17:30:00;2.6;;;0.8;;
49900;SDS011;35789;48.414;12.768;2022-09-02T17:35:00;2.6;;;0.8;;
49900;SDS011;35789;48.414;12.768;2022-09-02T17:40:00;2.6;;;0.8;;
49900;SDS011;35789;48.414;12.768;2022-09-02T17:45:00;2.6;;;0.8;;
49900;SDS011;35789;48.414;12.768;2022-09-02T17:50:00;2.6;;;0.8;;
49900;SDS011;35789;48.414;12.768;2022-09-02T17:55:00;2.6;;;0.8;;
49900;SDS011;35789;48.414;12.768;2022-09-02T18:00:05;3.1;;;0.9;;
49900;SDS011;35789;48.414;12.768;2022-09-02T18:05:05;3.1;;;0.9;;
49900;SDS011;35789;48.414;12.768;2022-09-02T18:10:00;3.1;;;0.9;;
49900;SDS011;35789;48.414;12.768;2022-09-02T18:15:00;3.1;;;0.9;;
49900;SDS011;35789;48.414;12.768;2022-09-02T18:20:06;3.1;;;0.9;;
49900;SDS011;35789;48.414;12.768;2022-09-02T18:25:08;3.1;;;0.9;;
49900;SDS011;35789;48.414;12.768;2022-09-02T18:30:04;5.6;;;1.1;;
49900;SDS011;35789;48.414;12.768;2022-09-02T18:35:07;5.6;;;1.1;;
49900;SDS011;35789;48.414;12.768;2022-09-02T18:40:10;5.6;;;1.1;;
49900;SDS011;35789;48.414;12.768;2022-09-02T18:45:06;5.6;;;1.1;;
49900;SDS011;35789;48.414;12.768;2022-09-02T18:50:04;5.6;;;1.1;;
49900;SDS011;35789;48.414;12.768;2022-09-02T18:55:06;5.6;;;1.1;;
49900;SDS011;35789;48.414;12.768;2022-09-02T19:00:02;3.3;;;1.1;;
49900;SDS011;35789;48.414;12.768;2022-09-02T19:05:01;3.3;;;1.1;;
49900;SDS011;35789;48.414;12.768;2022-09-02T19:10:01;3.3;;;1.1;;
49900;SDS011;35789;48.414;12.768;2022-09-02T19:15:01;3.3;;;1.1;;
49900;SDS011;35789;48.414;12.768;2022-09-02T19:20:00;3.3;;;1.1;;
49900;SDS011;35789;48.414;12.768;2022-09-02T19:25:05;3.3;;;1.1;;
49900;SDS011;35789;48.414;12.768;2022-09-02T19:30:03;2.6;;;0.9;;
49900;SDS011;35789;48.414;12.768;2022-09-02T19:35:03;2.6;;;0.9;;
49900;SDS011;35789;48.414;12.768;2022-09-02T19:40:05;2.6;;;0.9;;
49900;SDS011;35789;48.414;12.768;2022-09-02T19:45:00;2.6;;;0.9;;
49900;SDS011;35789;48.414;12.768;2022-09-02T19:50:00;2.6;;;0.9;;
49900;SDS011;35789;48.414;12.768;2022-09-02T19:55:00;2.6;;;0.9;;
49900;SDS011;35789;48.414;12.768;2022-09-02T20:00:00;3.5;;;1.3;;
49900;SDS011;35789;48.414;12.768;2022-09-02T20:05:00;3.5;;;1.3;;
49900;SDS011;35789;48.414;12.768;2022-09-02T20:10:00;3.5;;;1.3;;
49900;SDS011;35789;48.414;12.768;2022-09-02T20:15:00;3.5;;;1.3;;
49900;SDS011;35789;48.414;12.768;2022-09-02T20:20:06;3.5;;;1.3;;
49900;SDS011;35789;48.414;12.768;2022-09-02T20:25:00;3.5;;;1.3;;
49900;SDS011;35789;48.414;12.768;2022-09-02T20:30:05;3.0;;;1.2;;
49900;SDS011;35789;48.414;12.768;2022-09-02T20:35:08;3.0;;;1.2;;
49900;SDS011;35789;48.414;12.768;2022-09-02T20:40:09;3.0;;;1.2;;
49900;SDS011;35789;48.414;12.768;2022-09-02T20:45:03;3.0;;;1.2;;
49900;SDS011;35789;48.414;12.768;2022-09-02T20:50:12;3.0;;;1.2;;
49900;SDS011;35789;48.414;12.768;2022-09-02T20:55:04;3.0;;;1.2;;
49900;SDS011;35789;48.414;12.768;2022-09-02T21:00:05;2.9;;;1.2;;
49900;SDS011;35789;48.414;12.768;2022-09-02T21:05:05;2.9;;;1.2;;
49900;SDS011;35789;48.414;12.768;2022-09-02T21:10:03;2.9;;;1.2;;
49900;SDS011;35789;48.414;12.768;2022-09-02T21:15:05;2.9;;;1.2;;
49900;SDS011;35789;48.414;12.768;2022-09-02T21:20:07;2.9;;;1.2;;
49900;SDS011;35789;48.414;12.768;2022-09-02T21:25:02;2.9;;;1.2;;
49900;SDS011;35789;48.414;12.768;2022-09-02T21:30:04;4.1;;;1.4;;
49900;SDS011;35789;48.414;12.768;2022-09-02T21:35:02;4.1;;;1.4;;
49900;SDS011;35789;48.414;12.768;2022-09-02T21:40:03;4.1;;;1.4;;
49900;SDS011;35789;48.414;12.768;2022-09-02T21:45:07;4.1;;;1.4;;
49900;SDS011;35789;48.414;12.768;2022-09-02T21:50:07;4.1;;;1.4;;
49900;SDS011;35789;48.414;12.768;2022-09-02T21:55:08;4.1;;;1.4;;
49900;SDS011;35789;48.414;12.768;2022-09-02T22:00:05;4.1;;;1.3;;
49900;SDS011;35789;48.414;12.768;2022-09-02T22:05:02;4.1;;;1.3;;
49900;SDS011;35789;48.414;12.768;2022-09-02T22:10:08;4.1;;;1.3;;
49900;SDS011;35789;48.414;12.768;2022-09-02T22:15:02;4.1;;;1.3;;
49900;SDS011;35789;48.414;12.768;2022-09-02T22:20:02;4.1;;;1.3;;
49900;SDS011;35789;48.414;12.768;2022-09-02T22:25:00;4.1;;;1.3;;
49900;SDS011;35789;48.414;12.768;2022-09-02T22:30:03;3.1;;;1.3;;
49900;SDS011;35789;48.414;12.768;2022-09-02T22:35:03;3.1;;;1.3;;
49900;SDS011;35789;48.414;12.768;2022-09-02T22:40:05;3.1;;;1.3;;
49900;SDS011;35789;48.414;12.768;2022-09-02T22:45:04;3.1;;;1.3;;
49900;SDS011;35789;48.414;12.768;2022-09-02T22:50:01;3.1;;;1.3;;
49900;SDS011;35789;48.414;12.768;2022-09-02T22:55:00;3.1;;;1.3;;
49900;SDS011;35789;48.414;12.768;2022-09-02T23:00:03;4.2;;;1.4;;
49900;SDS011;35789;48.414;12.768;2022-09-02T23:05:13;4.2;;;1.4;;
49900;SDS011;35789;48.414;12.768;2022-09-02T23:10:02;4.2;;;1.4;;
49900;SDS011;35789;48.414;12.768;2022-09-02T23:15:09;4.2;;;1.4;;
49900;SDS011;35789;48.414;12.768;2022-09-02T23:20:09;4.2;;;1.4;;
49900;SDS011;35789;48.414;12.768;2022-09-02T23:25:13;4.2;;;1.4;;
49900;SDS011;35789;48.414;12.768;2022-09-02T23:30:00;2.9;;;1.2;;
49900;SDS011;35789;48.414;12.768;2022-09-02T23:35:09;2.9;;;1.2;;
49900;SDS011;35789;48.414;12.768;2022-09-02T23:40:07;2.9;;;1.2;;
49900;SDS011;35789;48.414;12.768;2022-09-02T23:45:06;2.9;;;1.2;;
49900;SDS011;35789;48.414;12.768;2022-09-02T23:50:07;2.9;;;1.2;;
49900;SDS011;35789;48.414;12.768;2022-09-02T23:55:07;2.9;;;1.2;;
